createdAt,value
2023-04-27T00:01:25.101Z,11.67
2023-04-27T00:06:29.102Z,10.20
2023-04-27T00:11:31.781Z,12.53
2023-04-27T00:16:34.479Z,13.23
2023-04-27T00:21:38.541Z,11.67
2023-04-27T00:26:41.565Z,10.67
2023-04-27T00:31:44.298Z,11.33
2023-04-27T00:36:48.290Z,7.50
2023-04-27T00:41:51.081Z,10.97
2023-04-27T00:46:54.508Z,13.07
2023-04-27T00:51:58.614Z,11.37
2023-04-27T00:57:02.264Z,11.03
2023-04-27T01:02:05.090Z,11.27
2023-04-27T01:07:09.160Z,10.30
2023-04-27T01:12:11.802Z,10.73
2023-04-27T01:17:15.003Z,14.90
2023-04-27T01:22:19.044Z,13.17
2023-04-27T01:27:23.052Z,11.30
2023-04-27T01:32:25.965Z,12.90
2023-04-27T01:37:28.640Z,20.13
2023-04-27T01:42:32.648Z,12.30
2023-04-27T01:47:35.348Z,10.70
2023-04-27T01:52:38.016Z,11.90
2023-04-27T01:57:41.959Z,13.30
2023-04-27T02:02:45.382Z,8.60
2023-04-27T02:07:48.148Z,13.50
2023-04-27T02:12:52.153Z,10.43
2023-04-27T02:17:55.007Z,14.03
2023-04-27T02:22:57.871Z,13.83
2023-04-27T02:28:01.833Z,14.67
2023-04-27T02:33:05.084Z,11.80
2023-04-27T02:38:07.870Z,10.80
2023-04-27T02:43:11.952Z,9.97
2023-04-27T02:48:14.843Z,9.93
2023-04-27T02:53:17.509Z,10.67
2023-04-27T02:58:22.594Z,10.30
2023-04-27T03:03:25.732Z,11.70
2023-04-27T03:08:28.576Z,12.43
2023-04-27T03:13:38.492Z,8.57
2023-04-27T03:18:41.522Z,8.63
2023-04-27T03:23:44.321Z,9.30
2023-04-27T03:28:48.643Z,13.03
2023-04-27T03:33:51.380Z,12.43
2023-04-27T03:38:54.287Z,12.07
2023-04-27T03:43:58.309Z,11.70
2023-04-27T03:49:00.970Z,9.53
2023-04-27T03:54:03.695Z,14.83
2023-04-27T03:59:07.690Z,9.50
2023-04-27T04:04:10.496Z,10.63
2023-04-27T04:09:13.701Z,12.37
2023-04-27T04:14:17.867Z,11.03
2023-04-27T04:19:21.946Z,9.50
2023-04-27T04:24:25.055Z,17.37
2023-04-27T04:29:29.091Z,28.97
2023-04-27T04:34:32.033Z,22.07
2023-04-27T04:39:34.883Z,13.20
2023-04-27T04:44:38.915Z,20.33
2023-04-27T04:49:41.612Z,11.67
2023-04-27T04:54:44.306Z,13.07
2023-04-27T04:59:48.376Z,19.20
2023-04-27T05:04:52.210Z,9.63
2023-04-27T05:09:55.295Z,11.93
2023-04-27T05:14:59.447Z,17.13
2023-04-27T05:20:02.079Z,10.03
2023-04-27T05:25:05.271Z,10.73
2023-04-27T05:30:11.100Z,10.07
2023-04-27T05:35:13.901Z,11.33
2023-04-27T05:40:16.787Z,11.00
2023-04-27T05:45:20.981Z,11.43
2023-04-27T05:50:23.868Z,12.73
2023-04-27T05:55:26.607Z,11.53
2023-04-27T06:00:30.734Z,9.93
2023-04-27T06:05:34.351Z,10.90
2023-04-27T06:10:37.330Z,9.20
2023-04-27T06:15:41.322Z,9.30
2023-04-27T06:20:44.091Z,12.80
2023-04-27T06:25:46.753Z,11.23
2023-04-27T06:30:50.795Z,12.07
2023-04-27T06:35:53.466Z,14.53
2023-04-27T06:40:56.335Z,7.67
2023-04-27T06:46:00.588Z,7.60
2023-04-27T06:51:03.301Z,13.50
2023-04-27T06:56:07.101Z,8.83
2023-04-27T07:01:11.215Z,9.10
2023-04-27T07:06:13.912Z,8.20
2023-04-27T07:11:16.606Z,9.00
2023-04-27T07:16:20.915Z,7.57
2023-04-27T07:21:23.647Z,9.50
2023-04-27T07:26:26.991Z,6.93
2023-04-27T07:31:31.738Z,8.37
2023-04-27T07:36:34.573Z,10.50
2023-04-27T07:41:37.312Z,8.40
2023-04-27T07:46:41.356Z,10.53
2023-04-27T07:51:44.044Z,10.20
2023-04-27T07:56:46.890Z,7.10
2023-04-27T08:01:51.104Z,8.97
2023-04-27T08:06:54.310Z,7.40
2023-04-27T08:11:58.783Z,7.90
2023-04-27T08:17:03.067Z,9.43
2023-04-27T08:22:05.866Z,8.23
2023-04-27T08:27:09.346Z,10.95
2023-04-27T08:32:13.324Z,11.05
2023-04-27T08:37:16.007Z,12.40
2023-04-27T08:42:18.736Z,11.02
2023-04-27T08:47:31.379Z,9.35
2023-04-27T08:52:45.408Z,9.25
2023-04-27T08:57:58.368Z,9.70
2023-04-27T09:03:04.245Z,10.93
2023-04-27T09:08:09.082Z,8.90
2023-04-27T09:13:11.772Z,13.00
2023-04-27T09:18:19.166Z,11.07
2023-04-27T09:23:27.853Z,11.93
2023-04-27T09:28:32.675Z,9.20
2023-04-27T09:33:37.255Z,6.55
2023-04-27T09:38:40.819Z,6.35
2023-04-27T09:43:45.687Z,6.35
2023-04-27T09:48:51.499Z,8.98
2023-04-27T09:53:58.386Z,8.05
2023-04-27T09:59:16.776Z,6.97
2023-04-27T10:04:40.001Z,8.77
2023-04-27T10:09:44.664Z,6.45
2023-04-27T10:14:54.523Z,7.95
2023-04-27T10:20:00.400Z,7.55
2023-04-27T10:25:15.365Z,7.75
2023-04-27T10:30:20.462Z,6.80
2023-04-27T10:35:33.950Z,7.75
2023-04-27T10:40:37.503Z,10.38
2023-04-27T10:45:41.001Z,6.38
2023-04-27T10:50:46.718Z,6.10
2023-04-27T10:55:55.508Z,6.07
2023-04-27T11:00:58.180Z,7.97
2023-04-27T11:06:04.281Z,7.95
2023-04-27T11:11:07.020Z,8.40
2023-04-27T11:16:09.776Z,6.32
2023-04-27T11:21:15.913Z,8.35
2023-04-27T11:26:22.388Z,8.65
2023-04-27T11:31:25.382Z,5.07
2023-04-27T11:36:29.503Z,6.82
2023-04-27T11:41:35.716Z,7.20
2023-04-27T11:46:38.949Z,8.00
2023-04-27T11:51:45.001Z,8.00
2023-04-27T11:56:47.674Z,6.93
2023-04-27T12:01:52.097Z,8.20
2023-04-27T12:06:56.078Z,7.93
2023-04-27T12:11:59.083Z,8.23
2023-04-27T12:17:02.059Z,6.63
2023-04-27T12:22:06.204Z,5.82
2023-04-27T12:27:09.204Z,5.63
2023-04-27T12:32:11.825Z,6.65
2023-04-27T12:37:15.799Z,7.60
2023-04-27T12:42:23.463Z,6.90
2023-04-27T12:47:46.028Z,7.10
2023-04-27T12:52:50.503Z,7.65
2023-04-27T12:57:53.251Z,6.53
2023-04-27T13:02:56.594Z,7.18
2023-04-27T13:08:00.924Z,6.53
2023-04-27T13:13:04.226Z,5.30
2023-04-27T13:18:07.150Z,5.78
2023-04-27T13:23:11.747Z,5.95
2023-04-27T13:28:14.459Z,22.85
2023-04-27T13:33:23.194Z,8.00
2023-04-27T13:38:27.754Z,12.05
2023-04-27T13:43:31.040Z,9.20
2023-04-27T13:48:33.686Z,6.78
2023-04-27T13:53:37.677Z,7.90
2023-04-27T13:58:41.535Z,5.00
2023-04-27T14:03:44.381Z,8.95
2023-04-27T14:08:48.461Z,12.10
2023-04-27T14:13:51.254Z,7.82
2023-04-27T14:18:54.086Z,7.07
2023-04-27T14:23:58.066Z,8.73
2023-04-27T14:29:00.771Z,7.03
2023-04-27T14:34:03.612Z,11.38
2023-04-27T14:39:09.357Z,8.43
2023-04-27T14:44:13.142Z,12.95
2023-04-27T14:49:16.081Z,7.15
2023-04-27T14:54:20.247Z,7.65
2023-04-27T14:59:23.247Z,6.15
2023-04-27T15:04:26.658Z,11.63
2023-04-27T15:09:31.043Z,10.95
2023-04-27T15:14:34.114Z,9.15
2023-04-27T15:19:36.797Z,7.05
2023-04-27T15:24:40.781Z,9.38
2023-04-27T15:29:43.632Z,6.57
2023-04-27T15:34:46.912Z,10.82
2023-04-27T15:39:52.300Z,8.82
2023-04-27T15:44:54.960Z,8.70
2023-04-27T15:49:58.354Z,8.30
2023-04-27T15:55:04.195Z,6.30
2023-04-27T16:00:12.431Z,12.02
2023-04-27T16:05:16.256Z,16.52
2023-04-27T16:10:20.290Z,13.18
2023-04-27T16:15:22.956Z,8.68
2023-04-27T16:20:28.858Z,10.55
2023-04-27T16:25:32.856Z,8.80
2023-04-27T16:30:35.604Z,8.82
2023-04-27T16:35:38.257Z,9.13
2023-04-27T16:40:42.251Z,6.88
2023-04-27T16:45:44.929Z,7.07
2023-04-27T16:50:47.973Z,8.68
2023-04-27T16:55:52.002Z,9.65
2023-04-27T17:00:54.814Z,6.93
2023-04-27T17:05:57.568Z,7.55
2023-04-27T17:11:01.542Z,8.25
2023-04-27T17:16:05.441Z,8.63
2023-04-27T17:21:08.148Z,11.68
2023-04-27T17:26:12.341Z,6.95
2023-04-27T17:31:15.174Z,8.85
2023-04-27T17:36:17.913Z,9.82
2023-04-27T17:41:22.244Z,5.88
2023-04-27T17:46:25.284Z,6.57
2023-04-27T17:51:27.975Z,9.70
2023-04-27T17:56:32.439Z,6.38
2023-04-27T18:01:35.262Z,10.27
2023-04-27T18:06:37.980Z,7.13
2023-04-27T18:11:42.153Z,6.43
2023-04-27T18:16:45.234Z,7.80
2023-04-27T18:21:53.280Z,7.03
2023-04-27T18:26:57.856Z,8.00
2023-04-27T18:32:05.422Z,10.13
2023-04-27T18:37:08.202Z,9.70
2023-04-27T18:42:12.461Z,10.63
2023-04-27T18:47:15.528Z,7.00
2023-04-27T18:52:18.204Z,8.97
2023-04-27T18:57:22.204Z,8.43
2023-04-27T19:02:25.871Z,9.27
2023-04-27T19:07:29.172Z,9.75
2023-04-27T19:12:33.299Z,6.60
2023-04-27T19:17:36.029Z,9.47
2023-04-27T19:22:38.978Z,9.30
2023-04-27T19:27:42.987Z,12.63
2023-04-27T19:32:45.783Z,6.17
2023-04-27T19:37:49.250Z,7.93
2023-04-27T19:42:53.248Z,11.50
2023-04-27T19:47:56.478Z,12.63
2023-04-27T19:52:59.170Z,13.33
2023-04-27T19:58:03.156Z,12.60
2023-04-27T20:03:06.596Z,10.07
2023-04-27T20:08:09.374Z,7.57
2023-04-27T20:13:13.493Z,8.77
2023-04-27T20:18:16.334Z,10.63
2023-04-27T20:23:19.246Z,14.23
2023-04-27T20:28:23.229Z,11.87
2023-04-27T20:33:26.015Z,10.67
2023-04-27T20:38:28.678Z,11.73
2023-04-27T20:43:32.732Z,15.30
2023-04-27T20:48:35.495Z,13.07
2023-04-27T20:53:38.316Z,18.30
2023-04-27T20:58:42.264Z,19.33
2023-04-27T21:03:46.570Z,15.67
2023-04-27T21:08:49.443Z,18.70
2023-04-27T21:13:53.679Z,12.57
2023-04-27T21:18:56.369Z,12.97
2023-04-27T21:24:07.308Z,17.47
2023-04-27T21:29:12.341Z,18.00
2023-04-27T21:34:15.427Z,18.93
2023-04-27T21:39:18.235Z,14.20
2023-04-27T21:44:22.233Z,16.13
2023-04-27T21:49:24.918Z,12.63
2023-04-27T21:54:27.620Z,18.30
2023-04-27T21:59:31.687Z,18.13
2023-04-27T22:04:35.835Z,15.03
2023-04-27T22:09:38.896Z,15.90
2023-04-27T22:14:43.065Z,16.03
2023-04-27T22:19:45.729Z,19.67
2023-04-27T22:24:48.599Z,15.63
2023-04-27T22:29:52.676Z,16.13
2023-04-27T22:34:55.558Z,20.13
2023-04-27T22:39:58.467Z,15.07
2023-04-27T22:45:02.516Z,14.33
2023-04-27T22:50:06.066Z,10.77
2023-04-27T22:55:09.671Z,15.83
2023-04-27T23:00:15.269Z,12.60
2023-04-27T23:05:18.061Z,15.93
2023-04-27T23:10:20.770Z,15.33
2023-04-27T23:15:24.878Z,13.53
2023-04-27T23:20:29.067Z,12.03
2023-04-27T23:25:33.209Z,13.63
2023-04-27T23:30:37.280Z,10.73
2023-04-27T23:35:39.970Z,12.77
2023-04-27T23:40:42.650Z,15.90
2023-04-27T23:45:51.617Z,14.47
2023-04-27T23:51:00.408Z,16.83
2023-04-27T23:56:03.090Z,16.27
